sensor_id;sensor_type;location;lat;lon;timestamp;P1;durP1;ratioP1;P2;durP2;ratioP2
73940;SDS011;62294;48.554;10.202;2022-07-23T00:00:06;6.97;;;4.57;;
73940;SDS011;62294;48.554;10.202;2022-07-23T00:02:34;7.65;;;4.22;;
73940;SDS011;62294;48.554;10.202;2022-07-23T00:05:01;6.95;;;4.28;;
73940;SDS011;62294;48.554;10.202;2022-07-23T00:07:28;7.05;;;4.68;;
73940;SDS011;62294;48.554;10.202;2022-07-23T00:09:55;5.18;;;3.90;;
73940;SDS011;62294;48.554;10.202;2022-07-23T00:12:22;5.78;;;4.18;;
73940;SDS011;62294;48.554;10.202;2022-07-23T00:14:48;6.90;;;4.20;;
73940;SDS011;62294;48.554;10.202;2022-07-23T00:17:15;6.22;;;5.20;;
73940;SDS011;62294;48.554;10.202;2022-07-23T00:19:41;6.03;;;4.15;;
73940;SDS011;62294;48.554;10.202;2022-07-23T00:22:08;5.70;;;3.88;;
73940;SDS011;62294;48.554;10.202;2022-07-23T00:24:34;6.30;;;3.83;;
73940;SDS011;62294;48.554;10.202;2022-07-23T00:27:01;5.80;;;4.13;;
73940;SDS011;62294;48.554;10.202;2022-07-23T00:29:28;6.60;;;4.13;;
73940;SDS011;62294;48.554;10.202;2022-07-23T00:31:55;6.32;;;4.20;;
73940;SDS011;62294;48.554;10.202;2022-07-23T00:34:22;6.65;;;4.70;;
73940;SDS011;62294;48.554;10.202;2022-07-23T00:36:49;8.30;;;4.53;;
73940;SDS011;62294;48.554;10.202;2022-07-23T00:39:15;8.32;;;4.72;;
73940;SDS011;62294;48.554;10.202;2022-07-23T00:41:42;7.80;;;4.60;;
73940;SDS011;62294;48.554;10.202;2022-07-23T00:44:18;8.38;;;4.78;;
73940;SDS011;62294;48.554;10.202;2022-07-23T00:46:57;7.68;;;4.47;;
73940;SDS011;62294;48.554;10.202;2022-07-23T00:49:28;9.93;;;5.47;;
73940;SDS011;62294;48.554;10.202;2022-07-23T00:51:56;9.23;;;5.28;;
73940;SDS011;62294;48.554;10.202;2022-07-23T00:54:24;14.55;;;5.63;;
73940;SDS011;62294;48.554;10.202;2022-07-23T00:56:53;10.05;;;5.40;;
73940;SDS011;62294;48.554;10.202;2022-07-23T00:59:20;10.38;;;5.57;;
73940;SDS011;62294;48.554;10.202;2022-07-23T01:01:46;8.25;;;5.32;;
73940;SDS011;62294;48.554;10.202;2022-07-23T01:04:16;8.07;;;5.07;;
73940;SDS011;62294;48.554;10.202;2022-07-23T01:06:43;10.35;;;5.70;;
73940;SDS011;62294;48.554;10.202;2022-07-23T01:09:10;9.65;;;6.10;;
73940;SDS011;62294;48.554;10.202;2022-07-23T01:11:37;8.27;;;5.70;;
73940;SDS011;62294;48.554;10.202;2022-07-23T01:14:13;8.70;;;5.55;;
73940;SDS011;62294;48.554;10.202;2022-07-23T01:16:43;8.07;;;5.88;;
73940;SDS011;62294;48.554;10.202;2022-07-23T01:19:11;9.35;;;6.15;;
73940;SDS011;62294;48.554;10.202;2022-07-23T01:21:43;10.18;;;6.30;;
73940;SDS011;62294;48.554;10.202;2022-07-23T01:24:11;9.20;;;6.40;;
73940;SDS011;62294;48.554;10.202;2022-07-23T01:26:40;10.20;;;5.82;;
73940;SDS011;62294;48.554;10.202;2022-07-23T01:29:09;10.23;;;6.40;;
73940;SDS011;62294;48.554;10.202;2022-07-23T01:31:36;9.38;;;6.55;;
73940;SDS011;62294;48.554;10.202;2022-07-23T01:34:03;18.77;;;7.93;;
73940;SDS011;62294;48.554;10.202;2022-07-23T01:36:30;10.68;;;6.90;;
73940;SDS011;62294;48.554;10.202;2022-07-23T01:38:57;10.73;;;6.85;;
73940;SDS011;62294;48.554;10.202;2022-07-23T01:41:24;10.00;;;5.90;;
73940;SDS011;62294;48.554;10.202;2022-07-23T01:43:52;11.65;;;7.43;;
73940;SDS011;62294;48.554;10.202;2022-07-23T01:46:18;12.30;;;6.70;;
73940;SDS011;62294;48.554;10.202;2022-07-23T01:48:45;10.43;;;7.18;;
73940;SDS011;62294;48.554;10.202;2022-07-23T01:51:12;10.60;;;6.30;;
73940;SDS011;62294;48.554;10.202;2022-07-23T01:53:39;12.13;;;6.80;;
73940;SDS011;62294;48.554;10.202;2022-07-23T01:56:05;13.07;;;7.47;;
73940;SDS011;62294;48.554;10.202;2022-07-23T01:58:32;10.15;;;7.00;;
73940;SDS011;62294;48.554;10.202;2022-07-23T02:00:59;11.07;;;7.00;;
73940;SDS011;62294;48.554;10.202;2022-07-23T02:03:26;12.30;;;7.20;;
73940;SDS011;62294;48.554;10.202;2022-07-23T02:05:52;13.00;;;7.10;;
73940;SDS011;62294;48.554;10.202;2022-07-23T02:08:19;10.48;;;7.18;;
73940;SDS011;62294;48.554;10.202;2022-07-23T02:10:46;12.68;;;7.50;;
73940;SDS011;62294;48.554;10.202;2022-07-23T02:13:13;11.40;;;7.60;;
73940;SDS011;62294;48.554;10.202;2022-07-23T02:15:44;10.73;;;6.43;;
73940;SDS011;62294;48.554;10.202;2022-07-23T02:18:12;10.07;;;6.22;;
73940;SDS011;62294;48.554;10.202;2022-07-23T02:20:39;10.43;;;7.32;;
73940;SDS011;62294;48.554;10.202;2022-07-23T02:23:06;10.88;;;7.38;;
73940;SDS011;62294;48.554;10.202;2022-07-23T02:25:33;12.18;;;7.15;;
73940;SDS011;62294;48.554;10.202;2022-07-23T02:28:01;11.50;;;6.93;;
73940;SDS011;62294;48.554;10.202;2022-07-23T02:30:28;10.18;;;6.72;;
73940;SDS011;62294;48.554;10.202;2022-07-23T02:32:54;12.57;;;6.65;;
73940;SDS011;62294;48.554;10.202;2022-07-23T02:35:22;9.20;;;6.22;;
73940;SDS011;62294;48.554;10.202;2022-07-23T02:37:48;9.50;;;6.85;;
73940;SDS011;62294;48.554;10.202;2022-07-23T02:40:16;10.18;;;6.55;;
73940;SDS011;62294;48.554;10.202;2022-07-23T02:42:44;9.63;;;6.32;;
73940;SDS011;62294;48.554;10.202;2022-07-23T02:45:22;10.65;;;7.00;;
73940;SDS011;62294;48.554;10.202;2022-07-23T02:47:49;14.38;;;6.97;;
73940;SDS011;62294;48.554;10.202;2022-07-23T02:50:16;12.50;;;7.32;;
73940;SDS011;62294;48.554;10.202;2022-07-23T02:52:42;10.77;;;6.75;;
73940;SDS011;62294;48.554;10.202;2022-07-23T02:55:10;13.25;;;7.85;;
73940;SDS011;62294;48.554;10.202;2022-07-23T02:57:37;17.48;;;8.68;;
73940;SDS011;62294;48.554;10.202;2022-07-23T03:00:04;14.43;;;8.57;;
73940;SDS011;62294;48.554;10.202;2022-07-23T03:02:32;17.48;;;9.13;;
73940;SDS011;62294;48.554;10.202;2022-07-23T03:04:58;13.50;;;8.25;;
73940;SDS011;62294;48.554;10.202;2022-07-23T03:07:25;14.07;;;8.35;;
73940;SDS011;62294;48.554;10.202;2022-07-23T03:09:52;17.33;;;9.00;;
73940;SDS011;62294;48.554;10.202;2022-07-23T03:12:18;16.35;;;8.27;;
73940;SDS011;62294;48.554;10.202;2022-07-23T03:14:45;13.40;;;8.65;;
73940;SDS011;62294;48.554;10.202;2022-07-23T03:17:11;12.57;;;8.50;;
73940;SDS011;62294;48.554;10.202;2022-07-23T03:19:38;12.43;;;8.10;;
73940;SDS011;62294;48.554;10.202;2022-07-23T03:22:22;15.65;;;8.50;;
73940;SDS011;62294;48.554;10.202;2022-07-23T03:24:48;12.90;;;7.97;;
73940;SDS011;62294;48.554;10.202;2022-07-23T03:27:22;14.57;;;8.40;;
73940;SDS011;62294;48.554;10.202;2022-07-23T03:29:50;13.48;;;8.85;;
73940;SDS011;62294;48.554;10.202;2022-07-23T03:32:18;15.00;;;8.63;;
73940;SDS011;62294;48.554;10.202;2022-07-23T03:34:44;18.92;;;10.93;;
73940;SDS011;62294;48.554;10.202;2022-07-23T03:37:11;14.75;;;9.73;;
73940;SDS011;62294;48.554;10.202;2022-07-23T03:39:38;14.85;;;8.93;;
73940;SDS011;62294;48.554;10.202;2022-07-23T03:42:05;13.88;;;9.18;;
73940;SDS011;62294;48.554;10.202;2022-07-23T03:44:32;15.15;;;8.77;;
73940;SDS011;62294;48.554;10.202;2022-07-23T03:46:59;14.40;;;9.68;;
73940;SDS011;62294;48.554;10.202;2022-07-23T03:49:26;12.15;;;8.70;;
73940;SDS011;62294;48.554;10.202;2022-07-23T03:51:53;16.75;;;9.60;;
73940;SDS011;62294;48.554;10.202;2022-07-23T03:54:19;13.88;;;8.50;;
73940;SDS011;62294;48.554;10.202;2022-07-23T03:56:45;16.15;;;9.85;;
73940;SDS011;62294;48.554;10.202;2022-07-23T03:59:12;13.88;;;8.88;;
73940;SDS011;62294;48.554;10.202;2022-07-23T04:01:39;13.27;;;8.40;;
73940;SDS011;62294;48.554;10.202;2022-07-23T04:04:06;12.65;;;8.68;;
73940;SDS011;62294;48.554;10.202;2022-07-23T04:06:35;22.48;;;9.80;;
73940;SDS011;62294;48.554;10.202;2022-07-23T04:09:02;13.20;;;9.02;;
73940;SDS011;62294;48.554;10.202;2022-07-23T04:11:30;16.65;;;9.20;;
73940;SDS011;62294;48.554;10.202;2022-07-23T04:13:57;13.85;;;8.98;;
73940;SDS011;62294;48.554;10.202;2022-07-23T04:16:23;14.25;;;8.77;;
73940;SDS011;62294;48.554;10.202;2022-07-23T04:18:50;15.93;;;9.48;;
73940;SDS011;62294;48.554;10.202;2022-07-23T04:21:17;15.32;;;9.18;;
73940;SDS011;62294;48.554;10.202;2022-07-23T04:23:43;14.07;;;8.68;;
73940;SDS011;62294;48.554;10.202;2022-07-23T04:26:10;15.93;;;9.93;;
73940;SDS011;62294;48.554;10.202;2022-07-23T04:28:43;13.82;;;9.55;;
73940;SDS011;62294;48.554;10.202;2022-07-23T04:31:09;15.30;;;9.25;;
73940;SDS011;62294;48.554;10.202;2022-07-23T04:33:35;16.25;;;8.45;;
73940;SDS011;62294;48.554;10.202;2022-07-23T04:36:02;13.80;;;8.32;;
73940;SDS011;62294;48.554;10.202;2022-07-23T04:38:29;16.67;;;8.20;;
73940;SDS011;62294;48.554;10.202;2022-07-23T04:40:56;11.20;;;7.80;;
73940;SDS011;62294;48.554;10.202;2022-07-23T04:43:22;12.73;;;8.10;;
73940;SDS011;62294;48.554;10.202;2022-07-23T04:45:49;14.50;;;9.05;;
73940;SDS011;62294;48.554;10.202;2022-07-23T04:48:15;15.82;;;8.95;;
73940;SDS011;62294;48.554;10.202;2022-07-23T04:50:42;12.55;;;8.93;;
73940;SDS011;62294;48.554;10.202;2022-07-23T04:53:09;14.07;;;8.82;;
73940;SDS011;62294;48.554;10.202;2022-07-23T04:55:36;13.68;;;9.50;;
73940;SDS011;62294;48.554;10.202;2022-07-23T04:58:02;17.63;;;9.95;;
73940;SDS011;62294;48.554;10.202;2022-07-23T05:00:29;12.93;;;8.85;;
73940;SDS011;62294;48.554;10.202;2022-07-23T05:02:55;12.75;;;8.52;;
73940;SDS011;62294;48.554;10.202;2022-07-23T05:05:21;15.05;;;9.32;;
73940;SDS011;62294;48.554;10.202;2022-07-23T05:07:48;13.82;;;9.48;;
73940;SDS011;62294;48.554;10.202;2022-07-23T05:10:15;15.65;;;9.10;;
73940;SDS011;62294;48.554;10.202;2022-07-23T05:12:41;13.45;;;8.45;;
73940;SDS011;62294;48.554;10.202;2022-07-23T05:15:08;13.93;;;8.45;;
73940;SDS011;62294;48.554;10.202;2022-07-23T05:17:34;15.07;;;8.70;;
73940;SDS011;62294;48.554;10.202;2022-07-23T05:20:01;15.13;;;7.82;;
73940;SDS011;62294;48.554;10.202;2022-07-23T05:22:28;13.63;;;8.50;;
73940;SDS011;62294;48.554;10.202;2022-07-23T05:24:54;13.75;;;8.52;;
73940;SDS011;62294;48.554;10.202;2022-07-23T05:27:21;11.70;;;8.07;;
73940;SDS011;62294;48.554;10.202;2022-07-23T05:29:48;12.35;;;7.47;;
73940;SDS011;62294;48.554;10.202;2022-07-23T05:32:14;13.23;;;8.02;;
73940;SDS011;62294;48.554;10.202;2022-07-23T05:34:40;12.45;;;7.35;;
73940;SDS011;62294;48.554;10.202;2022-07-23T05:37:07;12.15;;;8.00;;
73940;SDS011;62294;48.554;10.202;2022-07-23T05:39:34;13.63;;;7.22;;
73940;SDS011;62294;48.554;10.202;2022-07-23T05:42:01;8.88;;;6.72;;
73940;SDS011;62294;48.554;10.202;2022-07-23T05:44:27;10.52;;;7.00;;
73940;SDS011;62294;48.554;10.202;2022-07-23T05:47:00;13.00;;;7.18;;
73940;SDS011;62294;48.554;10.202;2022-07-23T05:49:26;18.10;;;8.50;;
73940;SDS011;62294;48.554;10.202;2022-07-23T05:51:54;10.82;;;7.43;;
73940;SDS011;62294;48.554;10.202;2022-07-23T05:54:20;12.05;;;7.03;;
73940;SDS011;62294;48.554;10.202;2022-07-23T05:56:46;16.33;;;8.75;;
73940;SDS011;62294;48.554;10.202;2022-07-23T05:59:13;12.40;;;7.57;;
73940;SDS011;62294;48.554;10.202;2022-07-23T06:01:40;13.95;;;7.13;;
73940;SDS011;62294;48.554;10.202;2022-07-23T06:04:07;12.25;;;7.53;;
73940;SDS011;62294;48.554;10.202;2022-07-23T06:06:34;12.77;;;7.10;;
73940;SDS011;62294;48.554;10.202;2022-07-23T06:09:00;9.60;;;6.25;;
73940;SDS011;62294;48.554;10.202;2022-07-23T06:11:28;10.48;;;6.80;;
73940;SDS011;62294;48.554;10.202;2022-07-23T06:13:54;12.23;;;7.15;;
73940;SDS011;62294;48.554;10.202;2022-07-23T06:16:20;10.23;;;6.20;;
73940;SDS011;62294;48.554;10.202;2022-07-23T06:18:48;10.40;;;6.78;;
73940;SDS011;62294;48.554;10.202;2022-07-23T06:21:14;8.90;;;6.45;;
73940;SDS011;62294;48.554;10.202;2022-07-23T06:24:00;10.38;;;6.40;;
73940;SDS011;62294;48.554;10.202;2022-07-23T06:26:27;15.45;;;6.97;;
73940;SDS011;62294;48.554;10.202;2022-07-23T06:28:54;9.27;;;6.55;;
73940;SDS011;62294;48.554;10.202;2022-07-23T06:31:20;12.90;;;6.50;;
73940;SDS011;62294;48.554;10.202;2022-07-23T06:33:47;10.40;;;6.72;;
73940;SDS011;62294;48.554;10.202;2022-07-23T06:36:14;12.38;;;7.90;;
73940;SDS011;62294;48.554;10.202;2022-07-23T06:38:40;14.30;;;7.18;;
73940;SDS011;62294;48.554;10.202;2022-07-23T06:41:07;8.88;;;6.25;;
73940;SDS011;62294;48.554;10.202;2022-07-23T06:43:33;13.30;;;6.70;;
73940;SDS011;62294;48.554;10.202;2022-07-23T06:46:00;9.20;;;6.70;;
73940;SDS011;62294;48.554;10.202;2022-07-23T06:48:27;10.25;;;6.68;;
73940;SDS011;62294;48.554;10.202;2022-07-23T06:50:55;11.07;;;6.15;;
73940;SDS011;62294;48.554;10.202;2022-07-23T06:53:21;10.20;;;5.90;;
73940;SDS011;62294;48.554;10.202;2022-07-23T06:55:48;9.68;;;5.75;;
73940;SDS011;62294;48.554;10.202;2022-07-23T06:58:14;8.38;;;6.45;;
73940;SDS011;62294;48.554;10.202;2022-07-23T07:00:41;8.80;;;6.10;;
73940;SDS011;62294;48.554;10.202;2022-07-23T07:03:08;8.50;;;6.07;;
73940;SDS011;62294;48.554;10.202;2022-07-23T07:05:34;9.70;;;5.97;;
73940;SDS011;62294;48.554;10.202;2022-07-23T07:08:01;8.45;;;6.03;;
73940;SDS011;62294;48.554;10.202;2022-07-23T07:10:28;6.85;;;5.18;;
73940;SDS011;62294;48.554;10.202;2022-07-23T07:12:54;7.15;;;5.97;;
73940;SDS011;62294;48.554;10.202;2022-07-23T07:15:21;7.45;;;5.43;;
73940;SDS011;62294;48.554;10.202;2022-07-23T07:17:47;12.25;;;5.97;;
73940;SDS011;62294;48.554;10.202;2022-07-23T07:20:14;6.50;;;5.00;;
73940;SDS011;62294;48.554;10.202;2022-07-23T07:22:40;7.10;;;4.88;;
73940;SDS011;62294;48.554;10.202;2022-07-23T07:25:08;6.28;;;4.80;;
73940;SDS011;62294;48.554;10.202;2022-07-23T07:27:34;6.05;;;4.55;;
73940;SDS011;62294;48.554;10.202;2022-07-23T07:30:02;7.25;;;4.75;;
73940;SDS011;62294;48.554;10.202;2022-07-23T07:32:30;6.80;;;4.53;;
73940;SDS011;62294;48.554;10.202;2022-07-23T07:35:18;7.93;;;4.80;;
73940;SDS011;62294;48.554;10.202;2022-07-23T07:37:45;6.60;;;4.60;;
73940;SDS011;62294;48.554;10.202;2022-07-23T07:40:12;6.40;;;4.57;;
73940;SDS011;62294;48.554;10.202;2022-07-23T07:42:45;7.35;;;4.72;;
73940;SDS011;62294;48.554;10.202;2022-07-23T07:45:19;6.38;;;4.60;;
73940;SDS011;62294;48.554;10.202;2022-07-23T07:47:47;7.18;;;4.32;;
73940;SDS011;62294;48.554;10.202;2022-07-23T07:50:13;5.50;;;4.22;;
73940;SDS011;62294;48.554;10.202;2022-07-23T07:52:40;6.72;;;4.85;;
73940;SDS011;62294;48.554;10.202;2022-07-23T07:55:08;8.40;;;4.90;;
73940;SDS011;62294;48.554;10.202;2022-07-23T07:57:35;7.38;;;5.05;;
73940;SDS011;62294;48.554;10.202;2022-07-23T08:00:02;6.53;;;5.10;;
73940;SDS011;62294;48.554;10.202;2022-07-23T08:05:10;6.97;;;4.97;;
73940;SDS011;62294;48.554;10.202;2022-07-23T08:07:37;7.10;;;5.43;;
73940;SDS011;62294;48.554;10.202;2022-07-23T08:10:06;8.38;;;5.55;;
73940;SDS011;62294;48.554;10.202;2022-07-23T08:12:53;7.40;;;4.90;;
73940;SDS011;62294;48.554;10.202;2022-07-23T08:15:23;8.18;;;4.80;;
73940;SDS011;62294;48.554;10.202;2022-07-23T08:17:51;6.70;;;4.85;;
73940;SDS011;62294;48.554;10.202;2022-07-23T08:20:20;7.45;;;4.53;;
73940;SDS011;62294;48.554;10.202;2022-07-23T08:22:52;7.28;;;4.45;;
73940;SDS011;62294;48.554;10.202;2022-07-23T08:25:33;6.75;;;4.80;;
73940;SDS011;62294;48.554;10.202;2022-07-23T08:28:02;5.53;;;4.28;;
73940;SDS011;62294;48.554;10.202;2022-07-23T08:30:31;7.43;;;4.45;;
73940;SDS011;62294;48.554;10.202;2022-07-23T08:35:35;6.38;;;4.28;;
73940;SDS011;62294;48.554;10.202;2022-07-23T08:38:09;6.93;;;4.50;;
73940;SDS011;62294;48.554;10.202;2022-07-23T08:40:37;5.40;;;4.30;;
73940;SDS011;62294;48.554;10.202;2022-07-23T08:43:10;5.70;;;4.28;;
73940;SDS011;62294;48.554;10.202;2022-07-23T08:45:42;6.55;;;4.65;;
73940;SDS011;62294;48.554;10.202;2022-07-23T08:48:14;7.35;;;3.75;;
73940;SDS011;62294;48.554;10.202;2022-07-23T08:50:47;10.47;;;5.77;;
73940;SDS011;62294;48.554;10.202;2022-07-23T08:53:15;7.53;;;4.63;;
73940;SDS011;62294;48.554;10.202;2022-07-23T08:55:43;7.07;;;4.40;;
73940;SDS011;62294;48.554;10.202;2022-07-23T08:58:11;4.63;;;3.92;;
73940;SDS011;62294;48.554;10.202;2022-07-23T09:00:37;6.45;;;4.55;;
73940;SDS011;62294;48.554;10.202;2022-07-23T09:03:04;7.43;;;4.65;;
73940;SDS011;62294;48.554;10.202;2022-07-23T09:05:31;6.45;;;4.30;;
73940;SDS011;62294;48.554;10.202;2022-07-23T09:08:04;8.70;;;5.18;;
73940;SDS011;62294;48.554;10.202;2022-07-23T09:13:38;6.57;;;5.20;;
73940;SDS011;62294;48.554;10.202;2022-07-23T09:21:47;8.88;;;4.78;;
73940;SDS011;62294;48.554;10.202;2022-07-23T09:24:13;5.78;;;4.38;;
73940;SDS011;62294;48.554;10.202;2022-07-23T09:26:43;6.95;;;4.13;;
73940;SDS011;62294;48.554;10.202;2022-07-23T09:29:21;6.78;;;4.43;;
73940;SDS011;62294;48.554;10.202;2022-07-23T09:31:50;6.22;;;4.50;;
73940;SDS011;62294;48.554;10.202;2022-07-23T09:34:24;8.43;;;5.05;;
73940;SDS011;62294;48.554;10.202;2022-07-23T09:36:53;7.72;;;4.50;;
73940;SDS011;62294;48.554;10.202;2022-07-23T09:41:56;7.35;;;4.90;;
73940;SDS011;62294;48.554;10.202;2022-07-23T09:44:23;6.75;;;4.32;;
73940;SDS011;62294;48.554;10.202;2022-07-23T09:46:57;6.50;;;5.13;;
73940;SDS011;62294;48.554;10.202;2022-07-23T09:49:24;7.15;;;4.70;;
73940;SDS011;62294;48.554;10.202;2022-07-23T09:54:29;6.95;;;4.82;;
73940;SDS011;62294;48.554;10.202;2022-07-23T09:57:00;7.07;;;4.90;;
73940;SDS011;62294;48.554;10.202;2022-07-23T09:59:34;8.37;;;5.10;;
73940;SDS011;62294;48.554;10.202;2022-07-23T10:02:03;8.02;;;5.40;;
73940;SDS011;62294;48.554;10.202;2022-07-23T10:04:32;6.70;;;5.30;;
73940;SDS011;62294;48.554;10.202;2022-07-23T10:07:00;9.30;;;5.80;;
73940;SDS011;62294;48.554;10.202;2022-07-23T10:09:29;6.70;;;4.97;;
73940;SDS011;62294;48.554;10.202;2022-07-23T10:11:59;8.65;;;5.18;;
73940;SDS011;62294;48.554;10.202;2022-07-23T10:14:35;8.57;;;5.80;;
73940;SDS011;62294;48.554;10.202;2022-07-23T10:17:04;6.45;;;4.82;;
73940;SDS011;62294;48.554;10.202;2022-07-23T10:19:31;6.00;;;4.63;;
73940;SDS011;62294;48.554;10.202;2022-07-23T10:22:02;9.77;;;5.57;;
73940;SDS011;62294;48.554;10.202;2022-07-23T10:27:53;8.82;;;5.57;;
73940;SDS011;62294;48.554;10.202;2022-07-23T10:30:36;7.75;;;5.65;;
73940;SDS011;62294;48.554;10.202;2022-07-23T10:33:23;8.52;;;5.78;;
73940;SDS011;62294;48.554;10.202;2022-07-23T10:38:53;7.50;;;6.25;;
73940;SDS011;62294;48.554;10.202;2022-07-23T10:41:36;7.32;;;4.80;;
73940;SDS011;62294;48.554;10.202;2022-07-23T10:46:54;7.55;;;5.40;;
73940;SDS011;62294;48.554;10.202;2022-07-23T10:49:39;7.00;;;5.57;;
73940;SDS011;62294;48.554;10.202;2022-07-23T10:54:50;5.50;;;4.67;;
73940;SDS011;62294;48.554;10.202;2022-07-23T10:57:18;7.32;;;5.10;;
73940;SDS011;62294;48.554;10.202;2022-07-23T11:02:30;8.07;;;5.53;;
73940;SDS011;62294;48.554;10.202;2022-07-23T11:05:01;7.68;;;5.57;;
73940;SDS011;62294;48.554;10.202;2022-07-23T11:07:31;6.28;;;5.13;;
73940;SDS011;62294;48.554;10.202;2022-07-23T11:09:58;8.55;;;5.85;;
73940;SDS011;62294;48.554;10.202;2022-07-23T11:25:12;8.95;;;5.82;;
73940;SDS011;62294;48.554;10.202;2022-07-23T11:27:41;8.00;;;6.13;;
73940;SDS011;62294;48.554;10.202;2022-07-23T11:30:10;7.45;;;5.65;;
73940;SDS011;62294;48.554;10.202;2022-07-23T11:35:33;8.27;;;5.90;;
73940;SDS011;62294;48.554;10.202;2022-07-23T11:38:03;8.50;;;6.78;;
73940;SDS011;62294;48.554;10.202;2022-07-23T11:40:32;9.00;;;6.55;;
73940;SDS011;62294;48.554;10.202;2022-07-23T11:43:00;9.15;;;5.95;;
73940;SDS011;62294;48.554;10.202;2022-07-23T11:45:36;15.70;;;8.10;;
73940;SDS011;62294;48.554;10.202;2022-07-23T11:48:05;19.67;;;8.20;;
73940;SDS011;62294;48.554;10.202;2022-07-23T11:50:34;10.23;;;6.57;;
73940;SDS011;62294;48.554;10.202;2022-07-23T11:53:02;13.85;;;8.05;;
73940;SDS011;62294;48.554;10.202;2022-07-23T11:55:30;13.90;;;8.07;;
73940;SDS011;62294;48.554;10.202;2022-07-23T11:57:57;11.77;;;6.95;;
73940;SDS011;62294;48.554;10.202;2022-07-23T12:00:26;11.85;;;7.75;;
73940;SDS011;62294;48.554;10.202;2022-07-23T12:02:56;11.95;;;7.13;;
73940;SDS011;62294;48.554;10.202;2022-07-23T12:05:29;11.00;;;7.95;;
73940;SDS011;62294;48.554;10.202;2022-07-23T12:07:58;10.00;;;7.07;;
73940;SDS011;62294;48.554;10.202;2022-07-23T12:10:29;7.88;;;6.20;;
73940;SDS011;62294;48.554;10.202;2022-07-23T12:13:00;9.07;;;6.38;;
73940;SDS011;62294;48.554;10.202;2022-07-23T12:15:34;9.38;;;6.57;;
73940;SDS011;62294;48.554;10.202;2022-07-23T12:18:06;8.20;;;5.82;;
73940;SDS011;62294;48.554;10.202;2022-07-23T12:20:39;7.95;;;6.40;;
73940;SDS011;62294;48.554;10.202;2022-07-23T12:23:11;7.78;;;5.88;;
73940;SDS011;62294;48.554;10.202;2022-07-23T12:25:46;7.68;;;6.10;;
73940;SDS011;62294;48.554;10.202;2022-07-23T12:28:15;8.05;;;5.78;;
73940;SDS011;62294;48.554;10.202;2022-07-23T12:30:47;7.22;;;5.88;;
73940;SDS011;62294;48.554;10.202;2022-07-23T12:33:22;9.73;;;6.00;;
73940;SDS011;62294;48.554;10.202;2022-07-23T12:35:52;9.70;;;6.50;;
73940;SDS011;62294;48.554;10.202;2022-07-23T12:38:21;9.98;;;6.13;;
73940;SDS011;62294;48.554;10.202;2022-07-23T12:40:49;9.35;;;6.40;;
73940;SDS011;62294;48.554;10.202;2022-07-23T12:43:19;10.20;;;6.88;;
73940;SDS011;62294;48.554;10.202;2022-07-23T12:45:52;11.10;;;6.53;;
73940;SDS011;62294;48.554;10.202;2022-07-23T12:48:31;9.52;;;5.78;;
73940;SDS011;62294;48.554;10.202;2022-07-23T12:51:04;8.43;;;5.47;;
73940;SDS011;62294;48.554;10.202;2022-07-23T12:53:42;8.18;;;5.60;;
73940;SDS011;62294;48.554;10.202;2022-07-23T12:56:10;7.85;;;6.00;;
73940;SDS011;62294;48.554;10.202;2022-07-23T12:58:41;8.60;;;5.60;;
73940;SDS011;62294;48.554;10.202;2022-07-23T13:01:27;8.88;;;6.07;;
73940;SDS011;62294;48.554;10.202;2022-07-23T13:06:43;9.38;;;5.80;;
73940;SDS011;62294;48.554;10.202;2022-07-23T13:09:32;7.65;;;5.30;;
73940;SDS011;62294;48.554;10.202;2022-07-23T13:12:07;9.55;;;5.97;;
73940;SDS011;62294;48.554;10.202;2022-07-23T13:14:55;7.68;;;5.07;;
73940;SDS011;62294;48.554;10.202;2022-07-23T13:17:21;7.22;;;5.55;;
73940;SDS011;62294;48.554;10.202;2022-07-23T13:19:49;7.97;;;5.65;;
73940;SDS011;62294;48.554;10.202;2022-07-23T13:22:15;10.70;;;6.43;;
73940;SDS011;62294;48.554;10.202;2022-07-23T13:24:42;7.15;;;6.22;;
73940;SDS011;62294;48.554;10.202;2022-07-23T13:27:10;8.60;;;5.57;;
73940;SDS011;62294;48.554;10.202;2022-07-23T13:29:38;8.02;;;5.30;;
73940;SDS011;62294;48.554;10.202;2022-07-23T13:32:05;6.18;;;4.93;;
73940;SDS011;62294;48.554;10.202;2022-07-23T13:34:36;6.93;;;5.35;;
73940;SDS011;62294;48.554;10.202;2022-07-23T13:37:04;6.47;;;4.70;;
73940;SDS011;62294;48.554;10.202;2022-07-23T13:39:31;6.75;;;5.05;;
73940;SDS011;62294;48.554;10.202;2022-07-23T13:42:03;7.88;;;5.50;;
73940;SDS011;62294;48.554;10.202;2022-07-23T13:44:32;7.22;;;5.18;;
73940;SDS011;62294;48.554;10.202;2022-07-23T13:46:59;6.15;;;4.45;;
73940;SDS011;62294;48.554;10.202;2022-07-23T13:49:26;7.88;;;4.78;;
73940;SDS011;62294;48.554;10.202;2022-07-23T13:51:54;7.43;;;5.10;;
73940;SDS011;62294;48.554;10.202;2022-07-23T13:54:21;6.80;;;4.82;;
73940;SDS011;62294;48.554;10.202;2022-07-23T13:56:48;6.65;;;4.90;;
73940;SDS011;62294;48.554;10.202;2022-07-23T13:59:15;6.22;;;4.63;;
73940;SDS011;62294;48.554;10.202;2022-07-23T14:01:43;6.35;;;4.70;;
73940;SDS011;62294;48.554;10.202;2022-07-23T14:04:31;5.82;;;4.45;;
73940;SDS011;62294;48.554;10.202;2022-07-23T14:06:57;5.65;;;4.90;;
73940;SDS011;62294;48.554;10.202;2022-07-23T14:09:24;8.95;;;6.32;;
73940;SDS011;62294;48.554;10.202;2022-07-23T14:11:51;8.25;;;6.35;;
73940;SDS011;62294;48.554;10.202;2022-07-23T14:14:18;6.97;;;5.28;;
73940;SDS011;62294;48.554;10.202;2022-07-23T14:16:45;5.95;;;4.82;;
73940;SDS011;62294;48.554;10.202;2022-07-23T14:19:11;5.63;;;4.57;;
73940;SDS011;62294;48.554;10.202;2022-07-23T14:21:38;7.43;;;5.10;;
73940;SDS011;62294;48.554;10.202;2022-07-23T14:24:05;6.65;;;5.03;;
73940;SDS011;62294;48.554;10.202;2022-07-23T14:26:32;6.60;;;4.57;;
73940;SDS011;62294;48.554;10.202;2022-07-23T14:28:59;7.47;;;4.78;;
73940;SDS011;62294;48.554;10.202;2022-07-23T14:31:26;8.07;;;5.60;;
73940;SDS011;62294;48.554;10.202;2022-07-23T14:33:53;6.47;;;5.05;;
73940;SDS011;62294;48.554;10.202;2022-07-23T14:36:19;7.00;;;4.65;;
73940;SDS011;62294;48.554;10.202;2022-07-23T14:38:47;6.45;;;5.03;;
73940;SDS011;62294;48.554;10.202;2022-07-23T14:41:13;5.78;;;4.75;;
73940;SDS011;62294;48.554;10.202;2022-07-23T14:43:41;8.00;;;5.03;;
73940;SDS011;62294;48.554;10.202;2022-07-23T14:46:10;6.82;;;4.78;;
73940;SDS011;62294;48.554;10.202;2022-07-23T14:48:39;5.97;;;4.75;;
73940;SDS011;62294;48.554;10.202;2022-07-23T14:51:05;8.02;;;5.20;;
73940;SDS011;62294;48.554;10.202;2022-07-23T14:53:32;5.45;;;4.40;;
73940;SDS011;62294;48.554;10.202;2022-07-23T14:55:59;8.13;;;5.10;;
73940;SDS011;62294;48.554;10.202;2022-07-23T14:58:26;8.23;;;5.38;;
73940;SDS011;62294;48.554;10.202;2022-07-23T15:00:52;7.43;;;5.10;;
73940;SDS011;62294;48.554;10.202;2022-07-23T15:03:19;6.70;;;5.25;;
73940;SDS011;62294;48.554;10.202;2022-07-23T15:05:45;7.18;;;5.40;;
73940;SDS011;62294;48.554;10.202;2022-07-23T15:08:12;9.30;;;5.97;;
73940;SDS011;62294;48.554;10.202;2022-07-23T15:10:39;6.65;;;5.00;;
73940;SDS011;62294;48.554;10.202;2022-07-23T15:13:05;8.57;;;5.25;;
73940;SDS011;62294;48.554;10.202;2022-07-23T15:15:33;7.65;;;5.32;;
73940;SDS011;62294;48.554;10.202;2022-07-23T15:18:00;9.52;;;5.43;;
73940;SDS011;62294;48.554;10.202;2022-07-23T15:20:27;8.25;;;5.40;;
73940;SDS011;62294;48.554;10.202;2022-07-23T15:23:13;6.78;;;5.38;;
73940;SDS011;62294;48.554;10.202;2022-07-23T15:25:40;7.03;;;5.15;;
73940;SDS011;62294;48.554;10.202;2022-07-23T15:28:15;6.72;;;5.25;;